Time;durP1;ratioP1;P1;durP2;ratioP2;P2;SDS_P1;SDS_P2;PMS_P1;PMS_P2;Temp;Humidity;BMP_temperature;BMP_pressure;BME280_temperature;BME280_humidity;BME280_pressure;Samples;Min_cycle;Max_cycle;Signal;HPM_P1;HPM_P2
2021/12/02 00:01:01;;;;;;;13.77;5.00;;;3.30;99.90;;;;;;5073849;28;20084;-75
2021/12/02 00:03:27;;;;;;;12.60;4.72;;;3.30;99.90;;;;;;5074466;28;20025;-73
2021/12/02 00:05:52;;;;;;;12.75;4.45;;;3.30;99.90;;;;;;5073374;28;20025;-72
2021/12/02 00:08:18;;;;;;;10.70;4.55;;;3.30;99.90;;;;;;5074871;28;20056;-73
2021/12/02 00:10:44;;;;;;;18.10;5.10;;;3.30;99.90;;;;;;5074195;28;20028;-73
2021/12/02 00:13:11;;;;;;;11.88;4.40;;;3.20;99.90;;;;;;5073829;28;20029;-73
2021/12/02 00:15:53;;;;;;;15.88;3.67;;;3.20;99.90;;;;;;5072482;28;20016;-73
2021/12/02 00:21:06;;;;;;;11.48;4.15;;;3.20;99.90;;;;;;5062087;28;20470;-73
2021/12/02 00:23:34;;;;;;;12.63;3.50;;;3.10;99.90;;;;;;5074129;28;20033;-73
2021/12/02 00:26:09;;;;;;;15.77;4.03;;;3.20;99.90;;;;;;5073837;28;20025;-75
2021/12/02 00:28:37;;;;;;;17.30;4.40;;;3.10;99.90;;;;;;5074663;28;20463;-73
2021/12/02 00:31:04;;;;;;;9.73;5.00;;;3.10;99.90;;;;;;5073237;28;20033;-74
2021/12/02 00:33:32;;;;;;;12.70;5.00;;;3.10;99.90;;;;;;5072585;28;20074;-73
2021/12/02 00:35:58;;;;;;;15.27;4.60;;;3.10;99.90;;;;;;5073729;28;20070;-73
2021/12/02 00:38:26;;;;;;;14.25;4.47;;;3.10;99.90;;;;;;5073393;28;20059;-73
2021/12/02 00:40:52;;;;;;;13.55;4.18;;;3.10;99.90;;;;;;5074366;28;20062;-73
2021/12/02 00:43:18;;;;;;;12.55;4.15;;;3.20;99.90;;;;;;5073186;28;20024;-73
2021/12/02 00:45:45;;;;;;;14.02;3.85;;;3.10;99.90;;;;;;5072466;28;20055;-73
2021/12/02 00:48:13;;;;;;;13.38;4.65;;;3.10;99.90;;;;;;5073102;28;20024;-73
2021/12/02 00:50:49;;;;;;;16.00;4.25;;;3.10;99.90;;;;;;5072214;28;20056;-73
2021/12/02 00:53:19;;;;;;;12.77;3.90;;;3.10;99.90;;;;;;5073115;28;20499;-73
2021/12/02 00:55:46;;;;;;;13.68;4.28;;;3.00;99.90;;;;;;5073849;28;20116;-73
2021/12/02 00:58:18;;;;;;;13.98;4.43;;;3.10;99.90;;;;;;5072514;28;20040;-73
2021/12/02 01:00:50;;;;;;;16.92;5.05;;;3.10;99.90;;;;;;5072611;28;20406;-73
2021/12/02 01:03:17;;;;;;;10.98;4.55;;;3.00;99.90;;;;;;5073313;28;20064;-73
2021/12/02 01:05:43;;;;;;;20.20;4.93;;;3.00;99.90;;;;;;5074167;28;20492;-73
2021/12/02 01:08:10;;;;;;;13.23;5.03;;;3.00;99.90;;;;;;5072917;28;20154;-73
2021/12/02 01:10:36;;;;;;;15.10;3.83;;;3.10;99.90;;;;;;5073096;28;20398;-73
2021/12/02 01:13:02;;;;;;;16.02;3.97;;;3.10;99.90;;;;;;5072055;28;20154;-75
2021/12/02 01:15:28;;;;;;;11.95;4.20;;;3.10;99.90;;;;;;5072822;28;20469;-73
2021/12/02 01:17:54;;;;;;;14.63;3.28;;;3.10;99.90;;;;;;5073081;28;20028;-73
2021/12/02 01:20:20;;;;;;;10.77;3.38;;;3.10;99.90;;;;;;5072251;28;20111;-73
2021/12/02 01:22:48;;;;;;;15.10;3.70;;;3.00;99.90;;;;;;5073101;28;20147;-72
2021/12/02 01:25:18;;;;;;;10.85;3.17;;;2.90;99.90;;;;;;5072174;28;20033;-73
2021/12/02 01:27:48;;;;;;;8.82;3.35;;;3.00;99.90;;;;;;5071869;28;20052;-73
2021/12/02 01:30:14;;;;;;;10.45;3.75;;;3.00;99.90;;;;;;5072372;28;20039;-73
2021/12/02 01:32:42;;;;;;;15.45;4.20;;;3.00;99.90;;;;;;5071557;28;20116;-73
2021/12/02 01:35:08;;;;;;;10.05;3.83;;;2.90;99.90;;;;;;5071869;28;20025;-74
2021/12/02 01:37:34;;;;;;;8.32;3.10;;;2.90;99.90;;;;;;5071387;28;20028;-72
2021/12/02 01:40:00;;;;;;;9.73;3.50;;;2.90;99.90;;;;;;5071438;28;20024;-73
2021/12/02 01:42:28;;;;;;;11.73;3.80;;;2.80;99.90;;;;;;5072028;28;20271;-73
2021/12/02 01:44:56;;;;;;;16.38;3.90;;;2.80;99.90;;;;;;5072648;28;20047;-73
2021/12/02 01:47:25;;;;;;;11.02;4.03;;;2.80;99.90;;;;;;5071665;28;20112;-73
2021/12/02 01:49:57;;;;;;;19.25;5.55;;;2.90;99.90;;;;;;5071217;28;20111;-73
2021/12/02 01:52:30;;;;;;;18.38;7.53;;;2.90;99.90;;;;;;5071538;28;20490;-73
2021/12/02 01:55:10;;;;;;;21.88;11.23;;;2.90;99.90;;;;;;5071854;28;20028;-73
2021/12/02 01:57:43;;;;;;;30.17;15.38;;;2.90;99.90;;;;;;5055054;28;20459;-73
2021/12/02 02:00:19;;;;;;;20.05;13.10;;;3.00;99.90;;;;;;5070691;28;20497;-75
2021/12/02 02:02:45;;;;;;;27.05;11.77;;;2.90;99.90;;;;;;5072504;28;20108;-72
2021/12/02 02:05:15;;;;;;;20.33;7.75;;;3.00;99.90;;;;;;5071453;28;20025;-73
2021/12/02 02:07:42;;;;;;;14.25;5.43;;;3.00;99.90;;;;;;5071240;28;20040;-73
2021/12/02 02:10:08;;;;;;;22.17;5.30;;;2.90;99.90;;;;;;5070684;28;20471;-75
2021/12/02 02:12:34;;;;;;;15.40;5.05;;;3.00;99.90;;;;;;5072289;28;20082;-73
2021/12/02 02:15:02;;;;;;;17.38;4.40;;;3.00;99.90;;;;;;5072291;28;20074;-73
2021/12/02 02:17:33;;;;;;;10.55;4.25;;;3.00;99.90;;;;;;5071326;28;20644;-73
2021/12/02 02:20:00;;;;;;;11.20;3.33;;;3.00;99.90;;;;;;5071921;28;20036;-73
2021/12/02 02:22:26;;;;;;;8.95;3.13;;;3.00;99.90;;;;;;5070876;28;20145;-73
2021/12/02 02:24:53;;;;;;;8.10;2.60;;;3.00;99.90;;;;;;5072240;28;20067;-73
2021/12/02 02:27:21;;;;;;;16.80;3.53;;;3.00;99.90;;;;;;5070044;28;20482;-73
2021/12/02 02:29:47;;;;;;;11.68;3.08;;;3.00;99.90;;;;;;5072017;28;20023;-72
2021/12/02 02:32:13;;;;;;;10.75;2.88;;;3.10;99.90;;;;;;5071328;28;20028;-73
2021/12/02 02:34:39;;;;;;;12.77;2.63;;;3.10;99.90;;;;;;5070656;28;20424;-72
2021/12/02 02:37:06;;;;;;;7.50;2.60;;;3.10;99.90;;;;;;5071661;28;20104;-73
2021/12/02 02:39:34;;;;;;;10.15;3.13;;;3.10;99.90;;;;;;5070015;28;20382;-73
2021/12/02 02:42:03;;;;;;;11.30;3.28;;;3.10;99.90;;;;;;5071969;28;20371;-73
2021/12/02 02:44:31;;;;;;;10.77;2.60;;;3.00;99.90;;;;;;5071022;28;20039;-73
2021/12/02 02:46:57;;;;;;;7.07;2.92;;;3.10;99.90;;;;;;5071820;28;20108;-73
2021/12/02 02:49:23;;;;;;;11.63;2.90;;;3.00;99.90;;;;;;5070791;28;20047;-73
2021/12/02 02:51:49;;;;;;;13.25;2.83;;;3.10;99.90;;;;;;5070124;28;20056;-73
2021/12/02 02:54:16;;;;;;;6.90;2.20;;;3.10;99.90;;;;;;5069777;28;20112;-72
2021/12/02 02:57:01;;;;;;;7.82;2.28;;;3.20;99.90;;;;;;5070515;28;20036;-73
2021/12/02 03:02:14;;;;;;;8.73;2.85;;;3.30;99.90;;;;;;5071777;28;20070;-73
2021/12/02 03:07:33;;;;;;;10.95;2.42;;;3.30;99.90;;;;;;5071735;28;20032;-73
2021/12/02 03:10:41;;;;;;;9.00;2.63;;;3.40;99.90;;;;;;5071297;28;20098;-73
2021/12/02 03:17:44;;;;;;;9.82;2.10;;;3.40;99.90;;;;;;5071495;28;20028;-73
2021/12/02 03:20:10;;;;;;;13.75;2.75;;;3.40;99.90;;;;;;5071664;28;20032;-73
2021/12/02 03:22:37;;;;;;;13.75;2.65;;;3.40;99.90;;;;;;5071023;28;20031;-73
2021/12/02 03:25:05;;;;;;;8.80;2.63;;;3.40;99.90;;;;;;5071302;28;20028;-72
2021/12/02 03:27:31;;;;;;;7.95;2.22;;;3.40;99.90;;;;;;5070764;28;20021;-73
2021/12/02 03:29:56;;;;;;;7.45;2.25;;;3.40;99.90;;;;;;5071234;28;20111;-73
2021/12/02 03:32:22;;;;;;;9.90;2.45;;;3.40;99.90;;;;;;5070677;28;20532;-73
2021/12/02 03:34:48;;;;;;;8.77;2.55;;;3.30;99.90;;;;;;5071026;28;20025;-73
2021/12/02 03:37:16;;;;;;;6.03;2.38;;;3.30;99.90;;;;;;5070988;28;20356;-75
2021/12/02 03:39:42;;;;;;;10.48;2.55;;;3.30;99.90;;;;;;5071049;28;20036;-73
2021/12/02 03:42:08;;;;;;;9.20;2.28;;;3.30;99.90;;;;;;5071111;28;20025;-73
2021/12/02 03:44:34;;;;;;;9.20;2.42;;;3.30;99.90;;;;;;5070559;28;20163;-73
2021/12/02 03:47:01;;;;;;;5.32;2.22;;;3.30;99.90;;;;;;5071156;28;20083;-73
2021/12/02 03:49:27;;;;;;;13.38;2.83;;;3.30;99.90;;;;;;5070938;28;20020;-72
2021/12/02 03:51:53;;;;;;;9.25;2.70;;;3.20;99.90;;;;;;5074948;28;20482;-72
2021/12/02 03:54:18;;;;;;;8.63;3.22;;;3.30;99.90;;;;;;5073854;28;20043;-73
2021/12/02 03:56:44;;;;;;;8.63;2.67;;;3.20;99.90;;;;;;5073500;28;20028;-72
2021/12/02 03:59:10;;;;;;;9.65;2.35;;;3.30;99.90;;;;;;5074522;28;20020;-72
2021/12/02 04:01:36;;;;;;;6.03;2.63;;;3.30;99.90;;;;;;5074056;28;20028;-72
2021/12/02 04:04:02;;;;;;;8.95;2.53;;;3.30;99.90;;;;;;5073478;28;20082;-72
2021/12/02 04:06:27;;;;;;;10.95;2.58;;;3.30;99.90;;;;;;5074086;28;20032;-73
2021/12/02 04:08:58;;;;;;;7.50;2.53;;;3.20;99.90;;;;;;5074374;28;20111;-72
2021/12/02 04:17:01;;;;;;;8.30;2.20;;;3.20;99.90;;;;;;5061929;28;20090;-72
2021/12/02 04:19:27;;;;;;;8.50;2.17;;;3.20;99.90;;;;;;5073272;28;20107;-74
2021/12/02 04:21:53;;;;;;;4.82;2.17;;;3.10;99.90;;;;;;5074548;28;20449;-72
2021/12/02 04:24:20;;;;;;;6.35;2.15;;;3.10;99.90;;;;;;5073611;28;20076;-75
2021/12/02 04:26:46;;;;;;;9.18;3.25;;;3.00;99.90;;;;;;5074840;28;20467;-74
2021/12/02 04:29:12;;;;;;;8.75;2.72;;;3.00;99.90;;;;;;5075892;28;20082;-73
2021/12/02 04:31:41;;;;;;;10.82;2.38;;;3.00;99.90;;;;;;5072219;28;20029;-73
2021/12/02 04:34:06;;;;;;;9.43;2.95;;;3.00;99.90;;;;;;5073970;28;20077;-73
2021/12/02 04:36:32;;;;;;;8.00;2.40;;;3.00;99.90;;;;;;5073322;28;20107;-73
2021/12/02 04:38:58;;;;;;;9.10;2.20;;;3.00;99.90;;;;;;5073882;28;20448;-72
2021/12/02 04:41:23;;;;;;;9.98;2.70;;;3.00;99.90;;;;;;5072012;28;20475;-73
2021/12/02 04:43:49;;;;;;;8.32;2.05;;;2.90;99.90;;;;;;5074287;28;20028;-73
2021/12/02 04:46:15;;;;;;;10.30;2.50;;;3.00;99.90;;;;;;5074152;28;20025;-73
2021/12/02 04:48:41;;;;;;;9.45;2.30;;;3.00;99.90;;;;;;5073178;28;20028;-73
2021/12/02 04:51:06;;;;;;;10.32;2.72;;;3.00;99.90;;;;;;5073647;28;20056;-72
2021/12/02 04:53:32;;;;;;;5.25;1.95;;;3.00;99.90;;;;;;5073013;28;20443;-73
2021/12/02 04:55:58;;;;;;;4.80;2.42;;;3.00;99.90;;;;;;5073571;28;20025;-72
2021/12/02 04:58:24;;;;;;;6.65;2.40;;;3.00;99.90;;;;;;5072824;28;20024;-73
2021/12/02 05:00:51;;;;;;;7.85;2.50;;;2.90;99.90;;;;;;5072223;28;20055;-72
2021/12/02 05:03:17;;;;;;;10.05;2.25;;;2.90;99.90;;;;;;5073638;28;20025;-72
2021/12/02 05:05:42;;;;;;;5.85;2.13;;;2.90;99.90;;;;;;5072652;28;20429;-72
2021/12/02 05:08:08;;;;;;;6.15;2.20;;;2.90;99.90;;;;;;5073328;28;20025;-73
2021/12/02 05:10:34;;;;;;;11.10;2.33;;;2.90;99.90;;;;;;5072502;28;20021;-73
2021/12/02 05:13:00;;;;;;;6.60;2.40;;;2.90;99.90;;;;;;5073256;28;20068;-73
2021/12/02 05:15:26;;;;;;;7.63;2.00;;;2.90;99.90;;;;;;5071662;28;20028;-74
2021/12/02 05:17:51;;;;;;;10.95;2.10;;;2.80;99.90;;;;;;5072218;28;20029;-73
2021/12/02 05:20:17;;;;;;;6.88;2.20;;;2.90;99.90;;;;;;5073156;28;20083;-72
2021/12/02 05:22:43;;;;;;;8.70;2.22;;;2.80;99.90;;;;;;5071044;28;20107;-73
2021/12/02 05:25:09;;;;;;;3.42;1.80;;;2.80;99.90;;;;;;5073250;28;20024;-73
2021/12/02 05:27:35;;;;;;;10.27;2.63;;;2.80;99.90;;;;;;5071166;28;20383;-73
2021/12/02 05:30:02;;;;;;;5.05;1.65;;;2.90;99.90;;;;;;5072875;28;20033;-73
2021/12/02 05:32:30;;;;;;;6.50;1.92;;;2.90;99.90;;;;;;5071822;28;20074;-73
2021/12/02 05:34:57;;;;;;;6.10;1.58;;;2.90;99.90;;;;;;5072922;28;20026;-73
2021/12/02 05:37:23;;;;;;;6.00;1.77;;;2.90;99.90;;;;;;5072374;28;20098;-75
2021/12/02 05:39:49;;;;;;;7.15;2.00;;;2.90;99.90;;;;;;5072510;28;20060;-73
2021/12/02 05:42:14;;;;;;;6.95;2.05;;;2.90;99.90;;;;;;5072646;28;20539;-73
2021/12/02 05:44:40;;;;;;;8.85;1.83;;;2.90;99.90;;;;;;5074387;28;20025;-73
2021/12/02 05:47:06;;;;;;;7.32;1.50;;;2.90;99.90;;;;;;5072854;28;20130;-73
2021/12/02 05:49:32;;;;;;;7.90;1.98;;;2.90;99.90;;;;;;5070650;28;20604;-73
2021/12/02 05:51:58;;;;;;;5.70;1.77;;;2.90;99.90;;;;;;5072108;28;20044;-73
2021/12/02 05:54:24;;;;;;;8.38;1.90;;;2.90;99.90;;;;;;5072452;28;20417;-75
2021/12/02 05:56:49;;;;;;;3.58;1.38;;;3.00;99.90;;;;;;5072082;28;20027;-72
2021/12/02 05:59:15;;;;;;;7.88;1.73;;;3.00;99.90;;;;;;5072291;28;20050;-73
2021/12/02 06:01:42;;;;;;;6.45;1.92;;;3.00;99.90;;;;;;5070179;28;20028;-73
2021/12/02 06:04:09;;;;;;;7.25;1.90;;;3.10;99.90;;;;;;5072216;28;20111;-72
2021/12/02 06:06:35;;;;;;;7.90;1.60;;;3.10;99.90;;;;;;5070469;28;20028;-72
2021/12/02 06:09:02;;;;;;;7.18;1.80;;;3.10;99.90;;;;;;5072321;28;20111;-73
2021/12/02 06:11:28;;;;;;;5.82;1.95;;;3.20;99.90;;;;;;5071364;28;20150;-72
2021/12/02 06:13:53;;;;;;;4.70;1.65;;;3.20;99.90;;;;;;5071725;28;20056;-72
2021/12/02 06:16:21;;;;;;;7.95;1.70;;;3.30;99.90;;;;;;5071878;28;20084;-73
2021/12/02 06:18:46;;;;;;;7.60;1.65;;;3.30;99.90;;;;;;5071396;28;20035;-72
2021/12/02 06:21:12;;;;;;;5.80;1.52;;;3.30;99.90;;;;;;5071658;28;20033;-73
2021/12/02 06:23:40;;;;;;;7.35;1.60;;;3.40;99.90;;;;;;5070099;28;20081;-73
2021/12/02 06:26:06;;;;;;;11.13;2.03;;;3.40;99.90;;;;;;5072100;28;20028;-73
2021/12/02 06:28:32;;;;;;;9.25;1.45;;;3.40;99.90;;;;;;5071404;28;20032;-73
2021/12/02 06:30:59;;;;;;;8.18;1.45;;;3.50;99.90;;;;;;5071725;28;20033;-73
2021/12/02 06:33:26;;;;;;;5.53;1.60;;;3.50;99.90;;;;;;5071637;28;20035;-75
2021/12/02 06:35:51;;;;;;;4.47;1.60;;;3.50;99.90;;;;;;5071580;28;20033;-73
2021/12/02 06:38:17;;;;;;;6.43;1.38;;;3.60;99.90;;;;;;5053990;28;20035;-73
2021/12/02 06:40:45;;;;;;;2.00;1.27;;;3.50;99.90;;;;;;5070875;28;20107;-73
2021/12/02 06:43:13;;;;;;;10.45;1.70;;;3.60;99.90;;;;;;5071886;28;20033;-73
2021/12/02 06:45:39;;;;;;;9.07;1.95;;;3.60;99.90;;;;;;5071110;28;20035;-73
2021/12/02 06:48:05;;;;;;;4.22;1.70;;;3.60;99.90;;;;;;5071609;28;20028;-72
2021/12/02 06:50:34;;;;;;;4.57;1.60;;;3.60;99.90;;;;;;5069372;28;20534;-74
2021/12/02 06:52:59;;;;;;;5.72;1.50;;;3.60;99.90;;;;;;5070548;28;20078;-73
2021/12/02 06:55:26;;;;;;;5.05;1.45;;;3.50;99.90;;;;;;5072128;28;20025;-74
2021/12/02 06:57:52;;;;;;;5.50;1.30;;;3.50;99.90;;;;;;5071291;28;20028;-73
2021/12/02 07:00:20;;;;;;;6.93;1.65;;;3.50;99.90;;;;;;5072779;28;20101;-73
2021/12/02 07:02:46;;;;;;;5.47;1.50;;;3.50;99.90;;;;;;5071250;28;20098;-73
2021/12/02 07:05:14;;;;;;;4.22;1.40;;;3.50;99.90;;;;;;5071629;28;20111;-73
2021/12/02 07:07:40;;;;;;;8.77;2.03;;;3.50;99.90;;;;;;5070449;28;20475;-73
2021/12/02 07:10:11;;;;;;;7.72;1.27;;;3.50;99.90;;;;;;5071543;28;20072;-73
2021/12/02 07:12:39;;;;;;;6.93;1.98;;;3.40;99.90;;;;;;5070674;28;20394;-73
2021/12/02 07:15:10;;;;;;;5.85;1.70;;;3.40;99.90;;;;;;5071429;28;20529;-73
2021/12/02 07:17:36;;;;;;;6.53;1.70;;;3.40;99.90;;;;;;5069690;28;20032;-73
2021/12/02 07:20:02;;;;;;;5.22;1.50;;;3.40;99.90;;;;;;5071914;28;20398;-72
2021/12/02 07:22:28;;;;;;;7.07;1.83;;;3.40;99.90;;;;;;5071205;28;20517;-75
2021/12/02 07:24:54;;;;;;;4.70;1.73;;;3.40;99.90;;;;;;5072001;28;20033;-72
2021/12/02 07:27:20;;;;;;;5.75;2.03;;;3.40;99.90;;;;;;5075402;28;20126;-72
2021/12/02 07:29:46;;;;;;;6.35;1.70;;;3.40;99.90;;;;;;5074344;28;20467;-73
2021/12/02 07:32:12;;;;;;;5.55;1.63;;;3.40;99.90;;;;;;5075076;28;20029;-73
2021/12/02 07:34:43;;;;;;;7.20;1.88;;;3.40;99.90;;;;;;5074301;28;20035;-73
2021/12/02 07:37:14;;;;;;;6.05;1.60;;;3.40;99.90;;;;;;5074919;28;20093;-73
2021/12/02 07:39:39;;;;;;;5.43;1.90;;;3.40;99.90;;;;;;5074216;28;20025;-73
2021/12/02 07:42:05;;;;;;;7.60;1.85;;;3.40;99.90;;;;;;5075334;28;20058;-73
2021/12/02 07:44:34;;;;;;;7.22;1.70;;;3.40;99.90;;;;;;5074279;28;20023;-75
2021/12/02 07:47:01;;;;;;;7.75;1.65;;;3.40;99.90;;;;;;5074633;28;20107;-73
2021/12/02 07:49:27;;;;;;;5.05;1.60;;;3.40;99.90;;;;;;5073668;28;20419;-73
2021/12/02 07:52:00;;;;;;;5.75;2.00;;;3.40;99.90;;;;;;5073525;28;20152;-74
2021/12/02 07:54:26;;;;;;;9.57;2.65;;;3.40;99.90;;;;;;5074724;28;20079;-73
2021/12/02 07:56:53;;;;;;;6.80;1.70;;;3.40;99.90;;;;;;5073801;28;20028;-73
2021/12/02 07:59:19;;;;;;;5.63;1.83;;;3.40;99.90;;;;;;5074889;28;20021;-74
2021/12/02 08:01:46;;;;;;;7.53;1.77;;;3.40;99.90;;;;;;5072633;28;20055;-74
2021/12/02 08:04:12;;;;;;;6.07;1.92;;;3.30;99.90;;;;;;5074848;28;20036;-73
2021/12/02 08:06:38;;;;;;;4.93;2.10;;;3.30;99.90;;;;;;5073666;28;20054;-72
2021/12/02 08:09:05;;;;;;;8.40;1.70;;;3.30;99.90;;;;;;5074258;28;20024;-73
2021/12/02 08:11:32;;;;;;;5.38;1.35;;;3.30;99.90;;;;;;5072816;28;20428;-74
2021/12/02 08:13:58;;;;;;;7.65;2.13;;;3.30;99.90;;;;;;5074165;28;20037;-73
2021/12/02 08:16:25;;;;;;;9.68;2.25;;;3.30;99.90;;;;;;5074389;28;20482;-73
2021/12/02 08:18:50;;;;;;;4.18;1.75;;;3.20;99.90;;;;;;5073718;28;20032;-74
2021/12/02 08:21:16;;;;;;;5.20;1.60;;;3.20;99.90;;;;;;5074582;28;20414;-74
2021/12/02 08:23:42;;;;;;;7.10;2.00;;;3.30;99.90;;;;;;5072006;28;20028;-73
2021/12/02 08:26:08;;;;;;;7.38;2.17;;;3.30;99.90;;;;;;5073812;28;20032;-74
2021/12/02 08:28:34;;;;;;;5.38;2.38;;;3.30;99.90;;;;;;5073774;28;20021;-76
2021/12/02 08:30:59;;;;;;;3.72;2.00;;;3.30;99.90;;;;;;5074051;28;20379;-74
2021/12/02 08:33:25;;;;;;;7.80;2.25;;;3.30;99.90;;;;;;5074159;28;20028;-74
2021/12/02 08:35:51;;;;;;;9.05;2.95;;;3.40;99.90;;;;;;5072790;28;20047;-74
2021/12/02 08:38:19;;;;;;;15.95;3.53;;;3.40;99.90;;;;;;5073821;28;20170;-72
2021/12/02 08:40:49;;;;;;;7.68;2.97;;;3.40;99.90;;;;;;5071679;28;20124;-72
2021/12/02 08:43:15;;;;;;;8.55;3.28;;;3.50;99.90;;;;;;5073797;28;20368;-73
2021/12/02 08:45:43;;;;;;;8.55;3.08;;;3.40;99.90;;;;;;5072886;28;20035;-73
2021/12/02 08:48:09;;;;;;;4.60;2.78;;;3.50;99.90;;;;;;5072285;28;20029;-73
2021/12/02 08:50:37;;;;;;;9.57;3.45;;;3.50;99.90;;;;;;5072957;28;20049;-74
2021/12/02 08:53:04;;;;;;;8.73;2.65;;;3.60;99.90;;;;;;5073541;28;20100;-73
2021/12/02 08:55:30;;;;;;;6.45;3.30;;;3.60;99.90;;;;;;5073279;28;20029;-73
2021/12/02 08:57:58;;;;;;;9.55;2.80;;;3.60;99.90;;;;;;5072688;28;20025;-74
2021/12/02 09:00:32;;;;;;;11.10;3.40;;;3.50;99.90;;;;;;5072168;28;20028;-75
2021/12/02 09:02:58;;;;;;;3.42;2.60;;;3.50;99.90;;;;;;5072915;28;20093;-75
2021/12/02 09:05:24;;;;;;;11.73;3.08;;;3.50;99.90;;;;;;5073474;28;20493;-75
2021/12/02 09:07:51;;;;;;;7.55;2.65;;;3.50;99.90;;;;;;5070984;28;20119;-75
2021/12/02 09:10:21;;;;;;;205.60;23.33;;;3.60;99.90;;;;;;5073320;28;20840;-73
2021/12/02 09:12:47;;;;;;;20.35;4.03;;;3.60;99.90;;;;;;5071139;28;20037;-73
2021/12/02 09:15:13;;;;;;;111.05;14.77;;;3.70;99.90;;;;;;5071929;28;20031;-73
2021/12/02 09:17:39;;;;;;;19.38;3.42;;;3.70;99.90;;;;;;5072373;28;20125;-75
2021/12/02 09:20:08;;;;;;;7.60;2.83;;;3.70;99.90;;;;;;5072851;28;20078;-73
2021/12/02 09:22:34;;;;;;;14.88;3.15;;;3.70;99.90;;;;;;5073430;28;20024;-73
2021/12/02 09:25:00;;;;;;;8.10;2.97;;;3.80;99.90;;;;;;5070841;28;20021;-73
2021/12/02 09:27:26;;;;;;;10.02;2.55;;;3.80;99.90;;;;;;5073125;28;20032;-74
2021/12/02 09:29:52;;;;;;;13.77;3.00;;;3.80;99.90;;;;;;5072404;28;20029;-74
2021/12/02 09:32:18;;;;;;;9.70;2.63;;;3.80;99.90;;;;;;5072621;28;20024;-73
2021/12/02 09:34:44;;;;;;;11.35;2.67;;;3.90;99.90;;;;;;5072063;28;20070;-74
2021/12/02 09:37:09;;;;;;;9.95;2.60;;;3.90;99.90;;;;;;5076053;28;20082;-73
2021/12/02 09:39:36;;;;;;;6.75;2.13;;;3.90;99.90;;;;;;5072588;28;20433;-74
2021/12/02 09:42:10;;;;;;;6.30;2.35;;;3.90;99.90;;;;;;5071790;28;20449;-74
2021/12/02 09:44:37;;;;;;;9.13;2.85;;;4.00;99.90;;;;;;5072826;28;20029;-74
2021/12/02 09:47:03;;;;;;;10.00;2.47;;;4.10;99.90;;;;;;5071607;28;20024;-74
2021/12/02 09:49:30;;;;;;;9.95;2.17;;;4.20;99.90;;;;;;5072776;28;20432;-73
2021/12/02 09:54:30;;;;;;;9.68;2.60;;;4.20;99.90;;;;;;5072466;28;20049;-74
2021/12/02 09:57:00;;;;;;;6.28;2.13;;;4.20;99.90;;;;;;5071723;28;20021;-73
2021/12/02 09:59:30;;;;;;;6.57;2.40;;;4.20;99.90;;;;;;5071250;28;20430;-74
2021/12/02 10:02:01;;;;;;;8.82;2.60;;;4.20;99.90;;;;;;5070304;28;20024;-73
2021/12/02 10:04:27;;;;;;;5.55;2.28;;;4.20;99.90;;;;;;5072146;28;20555;-73
2021/12/02 10:07:21;;;;;;;8.23;2.58;;;4.20;99.90;;;;;;5071876;28;20032;-74
2021/12/02 10:09:54;;;;;;;8.50;2.95;;;4.20;99.90;;;;;;5071265;28;20024;-74
2021/12/02 10:12:22;;;;;;;5.80;3.20;;;4.20;99.90;;;;;;5072316;28;20040;-73
2021/12/02 10:14:58;;;;;;;15.02;3.47;;;4.20;99.90;;;;;;5070064;28;20386;-73
2021/12/02 10:20:22;;;;;;;12.07;3.40;;;4.30;99.90;;;;;;5070169;28;20033;-74
2021/12/02 10:23:18;;;;;;;10.95;2.92;;;4.40;99.90;;;;;;5071097;28;20039;-75
2021/12/02 10:25:59;;;;;;;9.10;3.38;;;4.50;99.90;;;;;;5070124;28;20021;-75
2021/12/02 10:28:28;;;;;;;6.13;3.22;;;4.60;99.90;;;;;;5072226;28;20024;-74
2021/12/02 10:31:00;;;;;;;7.78;2.78;;;4.80;99.90;;;;;;5071173;28;20087;-74
2021/12/02 10:33:38;;;;;;;6.85;3.03;;;4.90;99.90;;;;;;5071915;28;20035;-74
2021/12/02 10:36:07;;;;;;;7.93;2.65;;;5.00;99.90;;;;;;5071191;28;20024;-74
2021/12/02 10:38:42;;;;;;;6.32;2.70;;;5.10;99.90;;;;;;5070497;28;20024;-74
2021/12/02 10:41:09;;;;;;;9.07;3.17;;;5.10;99.90;;;;;;5071137;28;20109;-75
2021/12/02 10:43:36;;;;;;;10.10;2.75;;;5.10;99.90;;;;;;5071768;28;20028;-75
2021/12/02 10:46:13;;;;;;;8.68;2.53;;;5.10;99.90;;;;;;5069753;28;20795;-75
2021/12/02 10:48:45;;;;;;;7.72;1.90;;;5.10;99.90;;;;;;5071917;28;20029;-75
2021/12/02 10:51:46;;;;;;;9.67;2.63;;;5.10;99.90;;;;;;5070522;28;20055;-74
2021/12/02 10:54:26;;;;;;;8.23;2.80;;;5.20;99.90;;;;;;5072416;28;20261;-74
2021/12/02 10:56:55;;;;;;;4.50;2.60;;;5.20;99.90;;;;;;5069585;28;20035;-75
2021/12/02 10:59:42;;;;;;;6.90;2.67;;;5.10;99.90;;;;;;5073518;28;20024;-73
2021/12/02 11:02:49;;;;;;;11.43;2.95;;;5.20;99.90;;;;;;5073659;28;20036;-74
2021/12/02 11:05:24;;;;;;;11.88;3.25;;;5.20;99.90;;;;;;5053282;28;20029;-74
2021/12/02 11:08:09;;;;;;;10.45;2.75;;;5.30;99.90;;;;;;5035829;28;20020;-74
2021/12/02 11:10:42;;;;;;;7.32;2.85;;;5.30;99.90;;;;;;5053289;28;20033;-74
2021/12/02 11:13:08;;;;;;;;;;;5.30;99.90;;;;;;5035934;28;20025;-74
2021/12/02 11:15:37;;;;;;;9.18;2.78;;;5.40;99.90;;;;;;5053123;28;19936;-74
2021/12/02 11:18:06;;;;;;;7.90;2.90;;;5.40;99.90;;;;;;5052282;28;20021;-74
2021/12/02 11:20:43;;;;;;;6.90;2.45;;;5.40;99.90;;;;;;5053113;28;20106;-73
2021/12/02 11:23:14;;;;;;;7.90;2.53;;;5.50;99.90;;;;;;5052109;28;20037;-74
2021/12/02 11:25:57;;;;;;;5.28;2.80;;;5.50;99.90;;;;;;5052873;28;20040;-74
2021/12/02 11:28:25;;;;;;;7.15;2.30;;;5.60;99.90;;;;;;5052759;28;20033;-74
2021/12/02 11:30:52;;;;;;;10.07;3.13;;;5.60;99.90;;;;;;5051866;28;20033;-75
2021/12/02 11:33:20;;;;;;;12.43;3.00;;;5.60;99.90;;;;;;5052721;28;20059;-74
2021/12/02 11:35:48;;;;;;;9.70;3.40;;;5.60;99.90;;;;;;5061386;28;20037;-75
2021/12/02 11:38:18;;;;;;;10.63;2.80;;;5.70;99.90;;;;;;5073567;28;20063;-74
2021/12/02 11:40:46;;;;;;;9.27;2.72;;;5.70;99.90;;;;;;5074921;28;20523;-74
2021/12/02 11:43:16;;;;;;;14.25;3.05;;;5.80;99.90;;;;;;5074277;28;20066;-74
2021/12/02 11:45:45;;;;;;;12.02;2.92;;;5.80;99.90;;;;;;5074903;28;20444;-74
2021/12/02 11:48:13;;;;;;;6.10;2.42;;;5.80;99.90;;;;;;5074237;28;20028;-74
2021/12/02 11:50:39;;;;;;;10.57;3.20;;;5.90;99.90;;;;;;5074413;28;20139;-74
2021/12/02 11:53:05;;;;;;;8.63;2.35;;;5.90;99.90;;;;;;5074008;28;20101;-74
2021/12/02 11:55:34;;;;;;;9.20;2.53;;;6.00;99.90;;;;;;5074874;28;20499;-74
2021/12/02 11:58:01;;;;;;;7.93;2.63;;;6.10;99.90;;;;;;5073846;28;20033;-74
2021/12/02 12:00:29;;;;;;;11.48;2.58;;;6.10;99.90;;;;;;5074768;28;20383;-74
2021/12/02 12:03:10;;;;;;;8.55;2.90;;;6.10;99.90;;;;;;5073610;28;20033;-75
2021/12/02 12:05:40;;;;;;;6.00;2.40;;;6.10;99.90;;;;;;5074955;28;20071;-75
2021/12/02 12:08:06;;;;;;;4.85;1.90;;;6.10;99.90;;;;;;5072515;28;20417;-75
2021/12/02 12:10:36;;;;;;;5.15;1.85;;;6.10;99.90;;;;;;5073719;28;20028;-75
2021/12/02 12:13:14;;;;;;;6.22;2.17;;;6.10;99.90;;;;;;5073510;28;20036;-75
2021/12/02 12:15:46;;;;;;;8.18;2.47;;;6.10;99.90;;;;;;5074494;28;20074;-75
2021/12/02 12:18:39;;;;;;;11.95;2.60;;;6.10;99.90;;;;;;5073731;28;20115;-75
2021/12/02 12:21:13;;;;;;;;;;;6.10;99.90;;;;;;5074001;28;20090;-75
2021/12/02 12:23:46;;;;;;;8.82;2.38;;;6.10;99.90;;;;;;5074155;28;20338;-75
2021/12/02 12:26:30;;;;;;;6.75;2.35;;;6.10;99.90;;;;;;5073274;28;20027;-75
2021/12/02 12:29:05;;;;;;;14.50;2.40;;;6.20;99.90;;;;;;5072744;28;20028;-75
2021/12/02 12:34:32;;;;;;;12.35;2.72;;;6.20;99.90;;;;;;5074109;28;20040;-75
2021/12/02 12:36:59;;;;;;;14.50;3.97;;;6.20;99.90;;;;;;5073134;28;20524;-75
2021/12/02 12:39:33;;;;;;;5.72;1.65;;;6.30;99.90;;;;;;5073459;28;20375;-74
2021/12/02 12:42:15;;;;;;;6.47;1.83;;;6.30;99.90;;;;;;5072937;28;20025;-74
2021/12/02 12:44:54;;;;;;;6.93;2.58;;;6.40;99.90;;;;;;5073560;28;20039;-74
2021/12/02 12:47:40;;;;;;;7.00;1.90;;;6.40;99.90;;;;;;5073569;28;20028;-75
2021/12/02 12:50:21;;;;;;;6.25;2.15;;;6.50;99.90;;;;;;5072275;28;20103;-75
2021/12/02 12:52:54;;;;;;;5.43;2.15;;;6.40;99.90;;;;;;5073020;28;20048;-74
2021/12/02 12:55:22;;;;;;;7.63;2.28;;;6.40;99.90;;;;;;5073075;28;20027;-74
2021/12/02 12:58:06;;;;;;;7.47;2.60;;;6.40;99.90;;;;;;5073120;28;20052;-75
2021/12/02 13:00:40;;;;;;;10.85;3.15;;;6.30;99.90;;;;;;5071665;28;20032;-75
2021/12/02 13:03:22;;;;;;;10.38;3.33;;;6.40;99.90;;;;;;5072398;28;20024;-75
2021/12/02 13:05:59;;;;;;;11.60;3.17;;;6.40;99.90;;;;;;5073463;28;20039;-75
2021/12/02 13:08:29;;;;;;;8.68;2.63;;;6.50;99.90;;;;;;5073213;28;20046;-75
2021/12/02 13:11:02;;;;;;;8.43;2.95;;;6.50;99.90;;;;;;5072450;28;20034;-76
2021/12/02 13:13:32;;;;;;;;;;;6.60;99.90;;;;;;5078761;28;20393;-76
2021/12/02 13:16:16;;;;;;;8.90;2.30;;;6.50;99.90;;;;;;5075181;28;19909;-75
2021/12/02 13:19:01;;;;;;;8.30;2.50;;;6.50;99.90;;;;;;5075370;28;20082;-75
2021/12/02 13:21:31;;;;;;;9.60;2.67;;;6.40;99.90;;;;;;5073332;28;20035;-74
2021/12/02 13:24:20;;;;;;;10.93;2.80;;;6.40;99.90;;;;;;5071691;28;20021;-75
2021/12/02 13:26:55;;;;;;;8.45;2.70;;;6.50;99.90;;;;;;5072472;28;20048;-75
2021/12/02 13:29:29;;;;;;;11.10;2.42;;;6.40;99.90;;;;;;5071328;28;20447;-76